• Join FlightAware (Why Join?)
  • Login
  • US Flag 
09:31PM EDT


 

Airport Tracker/Info


-or-


 

Live Flight TrackerFlight Track Log ✈ N81HR ✈ 10-May-2013 ✈ KHOU - KSCH

Flight Track Log - Related Links

Times and Time Zones

All times are in EDT time to prevent confusion due to time zone crossing. See the N81HR flight status page for this flight to view local times or setup timezone preferences in your user account.

Time Position Orientation Groundspeed Altitude Reporting Facility
EDT Latitude Longitude Course Direction KTS MPH feet Rate Location/Type
09:49AM 29.6333 -95.2653 49° Northeast 173 199 600  Level Houston Center
09:51AM 29.6700 -95.2167 49° Northeast 272 313 3,400 2,400 Climbing Houston Center
09:52AM 29.7481 -95.2192 358° North 276 318 6,000 2,520 Climbing Houston Center
09:53AM 29.8247 -95.2431 345° North 287 330 8,600 2,580 Climbing Houston Center
09:54AM 29.8972 -95.2814 335° Northwest 297 342 11,100 2,460 Climbing Houston Center
09:55AM 29.9792 -95.2619 12° North 308 354 13,700 2,400 Climbing Houston Center
09:56AM 30.0467 -95.1933 41° Northeast 336 387 16,000 1,140 Climbing Houston Center
09:57AM 30.1236 -95.1031 45° Northeast 373 429 16,100 960 Climbing Houston Center
09:58AM 30.2061 -95.0067 45° Northeast 414 476 18,200 1,920 Climbing Houston Center
09:59AM 30.2847 -94.9131 46° Northeast 408 470 20,100 1,620 Climbing Houston Center
10:00AM 30.3617 -94.8142 48° Northeast 409 471 21,500 1,800 Climbing Houston Center
10:01AM 30.4511 -94.6997 48° Northeast 410 472 23,800 1,680 Climbing Houston Center
10:02AM 30.5475 -94.6375 29° Northeast 393 452 25,000 540 Climbing Houston Center
10:03AM 30.6517 -94.5697 29° Northeast 419 482 25,000 480 Level Houston Center
10:04AM 30.7603 -94.4992 29° Northeast 440 506 26,000 1,200 Climbing Houston Center
10:05AM 30.8639 -94.4278 31° Northeast 435 501 27,500 1,620 Climbing Houston Center
10:06AM 30.9828 -94.3469 30° Northeast 415 478 29,400 1,560 Climbing Houston Center
10:07AM 31.0781 -94.2808 31° Northeast 406 467 30,800 1,380 Climbing Houston Center
10:08AM 31.1725 -94.2167 30° Northeast 397 457 32,300 1,500 Climbing Houston Center
10:09AM 31.2650 -94.1494 32° Northeast 399 459 33,800 1,320 Climbing Fort Worth Center
10:10AM 31.3594 -94.0878 29° Northeast 393 452 34,900 1,020 Climbing Fort Worth Center
10:11AM 31.4558 -94.0211 31° Northeast 398 458 35,900 960 Climbing Fort Worth Center
10:12AM 31.5503 -93.9567 30° Northeast 398 458 36,900 900 Climbing Fort Worth Center
10:13AM 31.6258 -93.9028 31° Northeast 393 452 37,700 660 Climbing Fort Worth Center
10:15AM 31.8200 -93.7536 33° Northeast 393 452 39,000 420 Climbing Fort Worth Center
10:16AM 31.8919 -93.6431 53° Northeast 400 460 39,000 360 Level Fort Worth Center
10:17AM 31.9697 -93.5294 51° Northeast 422 486 39,800 900 Climbing Fort Worth Center
10:18AM 32.0417 -93.4211 52° Northeast 427 491 40,800 600 Climbing Fort Worth Center
10:19AM 32.1153 -93.3075 53° Northeast 427 491 41,000 60 Climbing Fort Worth Center
10:20AM 32.1964 -93.1761 54° Northeast 438 504 41,000  Level Fort Worth Center
10:21AM 32.2661 -93.0797 49° Northeast 443 510 41,000  Level Fort Worth Center
10:22AM 32.3433 -92.9603 53° Northeast 438 504 41,000  Level Fort Worth Center
10:23AM 32.4344 -92.8206 52° Northeast 465 535 41,000  Level Fort Worth Center
10:24AM 32.5153 -92.6958 52° Northeast 474 545 41,000  Level Fort Worth Center
10:25AM 32.5942 -92.5758 52° Northeast 474 545 41,000  Level Fort Worth Center
10:26AM 32.6792 -92.4503 51° Northeast 474 545 41,000  Level Fort Worth Center
10:28AM 32.8592 -92.1700 53° Northeast 474 545 41,000  Level Memphis Center
10:29AM 32.9403 -92.0431 53° Northeast 481 554 41,000  Level Memphis Center
10:30AM 33.0214 -91.9133 53° Northeast 481 554 41,000  Level Memphis Center
10:31AM 33.1044 -91.7833 53° Northeast 481 554 41,000  Level Memphis Center
10:32AM 33.1872 -91.6531 53° Northeast 486 559 41,000  Level Memphis Center
10:33AM 33.2719 -91.5225 52° Northeast 486 559 41,000  Level Memphis Center
10:34AM 33.3544 -91.3894 53° Northeast 486 559 41,000  Level Memphis Center
10:35AM 33.4369 -91.2608 52° Northeast 486 559 41,000  Level Memphis Center
10:36AM 33.5169 -91.1322 53° Northeast 486 559 41,000  Level Memphis Center
10:37AM 33.5972 -91.0006 54° Northeast 486 559 41,000  Level Memphis Center
10:38AM 33.6792 -90.8739 52° Northeast 481 554 41,000  Level Memphis Center
10:39AM 33.7567 -90.7469 54° Northeast 481 554 41,000  Level Memphis Center
10:40AM 33.8406 -90.6122 53° Northeast 470 541 41,000  Level Memphis Center
10:41AM 33.9200 -90.4847 53° Northeast 470 541 41,000  Level Memphis Center
10:42AM 33.9975 -90.3547 54° Northeast 465 535 41,000  Level Memphis Center
10:43AM 34.0744 -90.2292 53° Northeast 471 542 41,000  Level Memphis Center
10:44AM 34.1558 -90.0986 53° Northeast 476 548 41,000  Level Memphis Center
10:45AM 34.2347 -89.9678 54° Northeast 476 548 41,000  Level Memphis Center
10:46AM 34.3136 -89.8342 54° Northeast 483 556 41,000  Level Memphis Center
10:47AM 34.3942 -89.6978 54° Northeast 489 563 41,000  Level Memphis Center
10:48AM 34.4747 -89.5611 54° Northeast 499 574 41,000  Level Memphis Center
10:49AM 34.5572 -89.4214 54° Northeast 499 574 41,000  Level Memphis Center
10:50AM 34.6336 -89.2994 53° Northeast 499 574 41,000  Level Memphis Center
10:51AM 34.7156 -89.1569 55° Northeast 499 574 41,000  Level Memphis Center
10:52AM 34.7997 -89.0192 53° Northeast 504 580 41,000  Level Memphis Center
10:53AM 34.8817 -88.8786 55° Northeast 504 580 41,000  Level Memphis Center
10:54AM 34.9633 -88.7406 54° Northeast 504 580 41,000  Level Memphis Center
10:55AM 35.0492 -88.5992 53° Northeast 509 586 41,000  Level Memphis Center
10:56AM 35.1386 -88.4553 53° Northeast 504 580 41,000  Level Memphis Center
10:57AM 35.2219 -88.3136 54° Northeast 491 565 41,000  Level Memphis Center
10:58AM 35.3008 -88.1717 56° Northeast 503 579 41,000  Level Memphis Center
10:59AM 35.3817 -88.0294 55° Northeast 503 579 41,000  Level Memphis Center
11:00AM 35.4544 -87.9025 55° Northeast 503 579 41,000  Level Memphis Center
11:01AM 35.5328 -87.7600 56° Northeast 497 572 41,000  Level Memphis Center
11:02AM 35.6133 -87.6169 55° Northeast 497 572 41,000  Level Memphis Center
11:03AM 35.6936 -87.4789 54° Northeast 497 572 41,000  Level Memphis Center
11:04AM 35.7717 -87.3406 55° Northeast 497 572 41,000  Level Memphis Center
11:05AM 35.8494 -87.1992 56° Northeast 497 572 41,000  Level Memphis Center
11:06AM 35.9269 -87.0578 56° Northeast 497 572 41,000  Level Memphis Center
11:07AM 36.0144 -86.9031 55° Northeast 497 572 41,000  Level Memphis Center
11:08AM 36.0917 -86.7583 57° Northeast 497 572 41,000  Level Memphis Center
11:09AM 36.1689 -86.6214 55° Northeast 516 594 41,000  Level Memphis Center
11:10AM 36.2564 -86.4808 52° Northeast 523 602 41,000  Level Memphis Center
11:11AM 36.3514 -86.3244 53° Northeast 518 596 41,000  Level Memphis Center
11:12AM 36.4406 -86.1781 53° Northeast 524 603 41,000  Level Memphis Center
11:13AM 36.5231 -86.0369 54° Northeast 519 597 41,000  Level Memphis Center
11:15AM 36.6756 -85.7781 54° Northeast 521 600 41,000  Level Indianapolis Center
11:16AM 36.7653 -85.6267 53° Northeast 521 600 41,000  Level Indianapolis Center
11:17AM 36.8653 -85.4550 54° Northeast 519 597 41,000  Level Indianapolis Center
11:18AM 36.9506 -85.3064 54° Northeast 521 600 41,000  Level Indianapolis Center
11:19AM 37.0361 -85.1578 54° Northeast 523 602 41,000  Level Indianapolis Center
11:20AM 37.1178 -85.0156 54° Northeast 525 604 41,000  Level Indianapolis Center
11:21AM 37.2172 -84.8422 54° Northeast 524 603 41,000  Level Indianapolis Center
11:22AM 37.3014 -84.6933 55° Northeast 523 602 41,000  Level Indianapolis Center
11:23AM 37.3858 -84.5442 55° Northeast 522 601 41,000  Level Indianapolis Center
11:24AM 37.4681 -84.3964 55° Northeast 517 595 41,000  Level Indianapolis Center
11:25AM 37.5514 -84.2486 55° Northeast 517 595 41,000  Level Indianapolis Center
11:26AM 37.6350 -84.1000 55° Northeast 515 593 41,000  Level Indianapolis Center
11:28AM 37.7167 -83.9531 55° Northeast 511 588 41,000  Level Indianapolis Center
11:29AM 37.7983 -83.8056 55° Northeast 511 588 41,000  Level Indianapolis Center
11:30AM 37.8942 -83.6317 55° Northeast 513 590 41,000  Level Indianapolis Center
11:31AM 37.9750 -83.4828 55° Northeast 510 587 41,000  Level Indianapolis Center
11:32AM 38.0558 -83.3350 55° Northeast 508 585 41,000  Level Indianapolis Center
11:33AM 38.1372 -83.1856 55° Northeast 512 589 41,000  Level Indianapolis Center
11:34AM 38.2181 -83.0344 56° Northeast 513 590 41,000  Level Indianapolis Center
11:35AM 38.2981 -82.8842 56° Northeast 511 588 41,000  Level Indianapolis Center
11:36AM 38.3786 -82.7375 55° Northeast 505 581 41,000  Level Indianapolis Center
11:37AM 38.4556 -82.5903 56° Northeast 498 573 41,000  Level Indianapolis Center
11:38AM 38.5347 -82.4431 55° Northeast 484 557 41,000  Level Indianapolis Center
11:39AM 38.6086 -82.3033 56° Northeast 475 547 41,000  Level Indianapolis Center
11:40AM 38.6825 -82.1619 56° Northeast 476 548 41,000  Level Indianapolis Center
11:41AM 38.7575 -82.0194 56° Northeast 479 551 41,000  Level Indianapolis Center
11:42AM 38.8372 -81.8833 53° Northeast 474 545 41,000  Level Indianapolis Center
11:43AM 38.9300 -81.7197 54° Northeast 465 535 41,000  Level Indianapolis Center
11:44AM 39.0028 -81.5878 55° Northeast 450 518 41,000  Level Indianapolis Center
11:45AM 39.0789 -81.4533 54° Northeast 459 528 41,000  Level Indianapolis Center
11:46AM 39.1553 -81.3167 54° Northeast 466 536 41,000  Level Indianapolis Center
11:47AM 39.2317 -81.1783 54° Northeast 471 542 41,000  Level Indianapolis Center
11:48AM 39.3083 -81.0433 54° Northeast 467 537 41,000  Level Indianapolis Center
11:49AM 39.3792 -80.9128 55° Northeast 448 516 41,000  Level Indianapolis Center
11:50AM 39.4492 -80.7839 55° Northeast 438 504 41,000  Level Indianapolis Center
11:51AM 39.5225 -80.6508 54° Northeast 451 519 41,000  Level Indianapolis Center
11:51AM 39.5522 -80.5992 53° Northeast 444 511 41,000  Level Cleveland Center
11:52AM 39.6272 -80.4617 55° Northeast 450 518 41,000  Level Cleveland Center
11:53AM 39.7022 -80.3267 54° Northeast 455 524 41,000  Level Cleveland Center
11:54AM 39.7767 -80.1861 55° Northeast 461 531 41,000  Level Cleveland Center
11:55AM 39.8511 -80.0503 54° Northeast 466 536 41,000  Level Cleveland Center
11:56AM 39.9317 -79.8981 55° Northeast 466 536 41,000  Level Cleveland Center
11:57AM 40.0017 -79.7647 56° Northeast 466 536 41,000  Level Cleveland Center
11:58AM 40.0758 -79.6308 54° Northeast 461 531 41,000  Level Cleveland Center
11:59AM 40.1475 -79.4886 57° Northeast 461 531 41,000  Level Cleveland Center
12:00PM 40.2211 -79.3486 55° Northeast 461 531 41,000  Level Cleveland Center
12:01PM 40.2864 -79.2222 56° Northeast 466 536 41,000  Level Cleveland Center
12:02PM 40.3617 -79.0789 55° Northeast 471 542 41,000  Level Cleveland Center
12:03PM 40.4306 -78.9464 56° Northeast 478 550 41,000  Level Cleveland Center
12:04PM 40.5178 -78.7722 57° Northeast 478 550 41,000  Level Cleveland Center
12:05PM 40.5944 -78.6281 55° Northeast 478 550 41,000  Level Cleveland Center
12:07PM 40.6975 -78.4197 57° Northeast 478 550 41,000  Level New York Center
12:08PM 40.7711 -78.2797 55° Northeast 478 550 41,000  Level New York Center
12:09PM 40.8425 -78.1394 56° Northeast 472 543 41,000 -240 Level New York Center
12:10PM 40.9114 -78.0014 57° Northeast 462 532 40,600 -840 Descending New York Center
12:11PM 40.9814 -77.8436 60° Northeast 450 518 39,400 -1,140 Descending New York Center
12:12PM 41.0439 -77.7017 60° Northeast 450 518 38,400 -1,020 Descending New York Center
12:13PM 41.1108 -77.5569 58° Northeast 450 518 37,400 -1,140 Descending New York Center
12:14PM 41.1681 -77.4275 60° Northeast 433 498 36,200 -1,140 Descending New York Center
12:15PM 41.2228 -77.3033 60° Northeast 402 463 35,200 -1,020 Descending New York Center
12:16PM 41.2800 -77.1733 60° Northeast 397 457 34,200 -1,020 Descending New York Center
12:17PM 41.3367 -77.0461 59° Northeast 397 457 33,200 -1,020 Descending New York Center
12:18PM 41.3917 -76.9131 61° Northeast 402 463 32,200 -1,020 Descending New York Center
12:19PM 41.4506 -76.7828 59° Northeast 402 463 31,200 -960 Descending New York Center
12:20PM 41.5069 -76.6519 60° Northeast 402 463 30,400 -960 Descending New York Center
12:21PM 41.5633 -76.5239 59° Northeast 402 463 29,300 -1,020 Descending New York Center
12:23PM 41.6753 -76.2539 61° Northeast 406 467 27,300 -960 Descending Boston Center
12:24PM 41.7342 -76.1181 60° Northeast 406 467 26,300 -1,020 Descending Boston Center
12:25PM 41.7928 -75.9739 61° Northeast 416 479 25,300 -900 Descending Boston Center
12:26PM 41.8536 -75.8294 60° Northeast 428 493 24,500 -660 Descending Boston Center
12:27PM 41.9119 -75.6847 62° Northeast 428 493 24,000 -300 Descending Boston Center
12:28PM 41.9700 -75.5481 60° Northeast 428 493 24,000  Level Boston Center
12:29PM 42.0236 -75.4139 62° Northeast 418 481 24,000  Level Boston Center
12:30PM 42.0811 -75.2878 58° Northeast 405 466 24,000 -840 Level Boston Center
12:31PM 42.1444 -75.1786 52° Northeast 386 444 22,400 -1,920 Descending Boston Center
12:32PM 42.2117 -75.0639 52° Northeast 368 423 20,200 -1,980 Descending Boston Center
12:33PM 42.2703 -74.9625 52° Northeast 349 402 18,500 -1,440 Descending Boston Center
12:34PM 42.3178 -74.8803 52° Northeast 343 395 17,400 -1,500 Descending Boston Center
12:35PM 42.3936 -74.7453 53° Northeast 333 383 15,300 -1,800 Descending Boston Center
12:36PM 42.4108 -74.7150 52° Northeast 331 381 14,800 -1,440 Descending Boston Center
12:36PM 42.4497 -74.6461 53° Northeast 337 388 13,800 -1,500 Descending Boston Center
12:37PM 42.4650 -74.6214 50° Northeast 324 373 13,300 -1,620 Descending Boston Center
12:37PM 42.5039 -74.5467 55° Northeast 332 382 12,200 -1,500 Descending Boston Center
12:38PM 42.5208 -74.5247 44° Northeast 318 366 11,800 -1,440 Descending Boston Center
12:38PM 42.5575 -74.4583 53° Northeast 314 361 10,800 -1,500 Descending Boston Center
12:39PM 42.5725 -74.4333 51° Northeast 306 352 10,300 -2,100 Descending Boston Center
12:39PM 42.6050 -74.3667 56° Northeast 296 341 8,700 -2,220 Descending Boston Center
12:40PM 42.6219 -74.3447 44° Northeast 293 337 8,100 -1,920 Descending Boston Center
12:40PM 42.6542 -74.2836 54° Northeast 290 334 6,800 -1,680 Descending Boston Center
12:41PM 42.6692 -74.2614 47° Northeast 269 310 6,400 -1,140 Descending Boston Center
12:41PM 42.6972 -74.2086 54° Northeast 259 298 5,700 -1,020 Descending Boston Center
12:42PM 42.7122 -74.1864 47° Northeast 246 283 5,400 -840 Descending Boston Center
12:42PM 42.7400 -74.1306 56° Northeast 254 292 4,900 -840 Descending Boston Center
12:43PM 42.7664 -74.0494 66° East 246 283 4,000 -1,260 Descending Boston Center
12:44PM 42.7794 -73.9903 73° East 206 237 2,400 -1,560 Descending Boston Center
12:45PM 42.7903 -73.9764 43° Northeast 149 171 2,100  Descending Boston Center
12:45PM 42.8033 -73.9200 72° East 206 237 2,400 -1,140 Climbing Boston Center
12:46PM 42.8258 -73.9517 314° West 122 140 900 -4,320 Descending Boston Center
12:52PM 42.8526 -73.9290 264° West  Level Estimated
12:59PM 42.8526 -73.9290 264° West  Level Estimated
01:00PM 42.8526 -73.9290 264° West  Level Estimated
01:01PM 42.8526 -73.9290 264° West  Level Estimated